• Join FlightAware (Why Join?)
  • Login
  • US Flag 
02:58AM EST


 

Airport Tracker/Info


-or-


 

Live Flight TrackerFlight Track Log ✈ N560G ✈ 16-Nov-2013 ✈ KPNE - KGON

Flight Track Log - Related Links

Times and Time Zones

All times are in EST time to prevent confusion due to time zone crossing. See the N560G flight status page for this flight to view local times or setup timezone preferences in your user account.

Time Position Orientation Groundspeed Altitude Reporting Facility
EST Latitude Longitude Course Direction KTS MPH feet Rate Location/Type
11:14AM 40.1000 -75.0167 360° North 169 194 900  Level Philadelphia TRACON
11:15AM 40.1500 -75.0167 360° North 255 293 3,000 621 Climbing Philadelphia TRACON
11:17AM 40.1747 -74.8375 80° East 258 297 3,000 168 Level New York Center
11:18AM 40.1842 -74.7431 83° East 258 297 3,500 950 Climbing New York Center
11:19AM 40.1917 -74.6483 84° East 265 305 4,900 750 Climbing New York Center
11:20AM 40.1803 -74.5500 99° East 265 305 5,000 50 Climbing New York Center
11:21AM 40.1603 -74.4592 106° East 271 312 5,000  Level New York Center
11:22AM 40.1317 -74.3653 112° Southeast 271 312 5,000  Level New York Center
11:23AM 40.1056 -74.2717 110° East 276 318 5,000 400 Level New York Center
11:24AM 40.0792 -74.1756 110° East 279 321 5,800 500 Climbing New York Center
11:25AM 40.0567 -74.0875 108° East 279 321 6,000 700 Climbing New York Center
11:26AM 40.0303 -73.9886 109° East 274 315 7,200 1,700 Climbing New York Center
11:27AM 39.9997 -73.8817 110° East 280 322 9,400 1,400 Climbing New York Center
11:28AM 39.9711 -73.7800 110° East 297 342 10,000 350 Climbing New York Center
11:29AM 39.9764 -73.6558 87° East 315 362 10,100 450 Climbing New York Center
11:30AM 40.0558 -73.5533 45° Northeast 328 377 10,900 450 Climbing New York Center
11:31AM 40.1269 -73.4558 46° Northeast 348 400 11,000 29 Climbing New York Center
11:33AM 40.2786 -73.2375 48° Northeast 353 406 11,000  Level Boston Center
11:34AM 40.3442 -73.1442 47° Northeast 350 403 11,000  Level Boston Center
11:35AM 40.4133 -73.0475 47° Northeast 361 415 11,000 -307 Level Boston Center
11:37AM 40.4875 -72.9400 48° Northeast 328 377 10,300 -832 Descending Boston Center
11:38AM 40.5542 -72.8458 47° Northeast 298 343 9,100 -590 Descending Boston Center
11:39AM 40.6097 -72.7669 47° Northeast 295 339 9,100 -347 Level Boston Center
11:40AM 40.6711 -72.6956 41° Northeast 297 342 8,400 -878 Descending Boston Center
11:41AM 40.7389 -72.6336 35° Northeast 300 345 7,300 -1,065 Descending Boston Center
11:42AM 40.8011 -72.5672 39° Northeast 296 341 6,200 -1,041 Descending Boston Center
11:43AM 40.8644 -72.5028 38° Northeast 294 338 5,200 -545 Descending Boston Center
11:44AM 40.9383 -72.4264 38° Northeast 287 330 5,100 -48 Descending Boston Center
11:45AM 40.9992 -72.3622 39° Northeast 282 325 5,100  Level Boston Center
11:46AM 41.0606 -72.2994 38° Northeast 281 323 5,100  Level Boston Center
11:47AM 41.1228 -72.2344 38° Northeast 286 329 5,100 -71 Level Boston Center
11:47AM 41.1508 -72.2094 34° Northeast 265 305 5,000 -393 Descending Boston Center
11:48AM 41.1800 -72.1758 41° Northeast 263 303 4,700 -1,082 Descending Boston Center
11:48AM 41.2042 -72.1433 45° Northeast 262 302 3,900 -1,500 Descending Boston Center
11:49AM 41.2278 -72.1097 47° Northeast 249 287 3,200 -1,418 Descending Boston Center
11:49AM 41.2458 -72.0900 39° Northeast 222 255 2,600 -1,125 Descending Boston Center
11:50AM 41.2783 -72.0553 39° Northeast 214 246 2,000 -900 Descending Boston Center
11:50AM 41.2903 -72.0433 37° Northeast 192 221 1,700 -492 Descending Boston Center
11:51AM 41.3169 -72.0125 41° Northeast 176 203 1,500 -393 Descending Boston Center
11:51AM 41.3233 -72.0097 18° North 137 158 1,300 -300 Descending Boston Center
11:52AM 41.3453 -71.9811 44° Northeast 166 191 1,200 -300 Descending Boston Center
11:52AM 41.3508 -72.0028 289° West 102 117 1,000 -100 Descending Boston Center
11:53AM 41.3675 -72.0336 306° West 164 189 1,100 -787 Climbing Boston Center
11:53AM 41.3442 -72.0347 182° South 99 114 200 -3,375 Descending Boston Center